Weather observations for the past three days for
Astoria, Astoria Regional Airport
Metric (Imperial)
Date Time (pdt) Wind (kph) Vis. (km) Weather Sky Cond. Temperature (ºC) Relative Humidity Wind Chill (°C) Heat Index (°C) Pressure Precipitation (cm)
Air Dwpt 6 hour altimeter (cm) sea level (mb) 1 hr 3 hr 6 hr
Max. Min.
08 14:55 SW 20 G 43 16.09 Overcast OVC042 14.4 8.9 70% 76.71 1022.6
08 13:55 S 22 G 43 16.09 Overcast OVC039 14.4 7.8 65% 76.68 1022.2
08 12:55 SW 19 G 41 16.09 Overcast OVC039 14.4 7.8 65% 76.66 1021.9
08 11:55 SW 20 G 35 16.09 Overcast FEW030 OVC037 13.3 7.2 67% 76.63 1021.5
08 10:55 SW 19 G 30 16.09 Overcast FEW026 OVC039 12.8 6.7 12.8 10 67% 76.63 1021.6
08 09:55 SW 19 16.09 Overcast FEW029 OVC038 12.2 6.7 69% 76.61 1021.1
08 08:55 S 9 16.09 Overcast BKN028 OVC033 11.7 6.7 72% 76.56 1020.6
08 07:55 SE 9 16.09 Overcast OVC030 11.1 6.7 75% 76.5 1019.8
08 06:55 S 7 16.09 Overcast OVC033 11.1 5.6 69% 76.45 1019.3
08 05:55 SW 9 16.09 Overcast OVC027 10.6 6.1 74% 76.48 1019.5
08 04:55 SW 6 16.09 Overcast OVC028 10 6.1 10 7.2 77% 76.45 1019.3
08 03:55 Calm 16.09 Overcast OVC025 8.9 6.7 86% 76.43 1018.9
08 02:55 S 6 16.09 Overcast OVC022 7.8 6.1 89% 76.4 1018.4
08 01:55 SE 6 16.09 Mostly Cloudy BKN020 7.2 6.1 93% 76.38 1018.1
08 00:55 SE 6 16.09 A Few Clouds FEW020 7.8 6.1 89% 76.35 1017.9
07 23:55 S 6 16.09 Fair CLR 8.3 6.1 86% 76.35 1017.8
07 22:55 Calm 16.09 Fair CLR 8.9 6.1 14.4 8.9 83% 76.35 1017.9
07 21:55 SW 6 16.09 Fair CLR 8.9 6.1 83% 76.35 1018.0
07 20:55 W 6 16.09 Fair CLR 10 6.1 77% 76.35 1018.0
07 19:55 W 11 16.09 Fair CLR 10.6 6.1 74% 76.35 1017.8
07 18:55 W 15 16.09 Fair CLR 12.8 6.1 64% 76.35 1018.0
07 17:55 NW 17 16.09 Fair CLR 13.3 6.1 62% 76.38 1018.4
07 16:55 NW 20 16.09 Fair CLR 14.4 6.7 15 12.8 60% 76.4 1018.6
07 15:55 NW 17 16.09 Fair CLR 14.4 6.7 60% 76.45 1019.2
07 14:55 W 17 16.09 Fair CLR 14.4 6.7 60% 76.48 1019.7
07 13:55 N 17 16.09 Fair CLR 14.4 6.7 60% 76.48 1019.6
07 12:55 Vrbl 11 16.09 Fair CLR 13.9 6.1 60% 76.53 1020.2
07 11:55 N 11 16.09 Fair CLR 13.9 5 55% 76.56 1020.6
07 10:55 W 7 16.09 Partly Cloudy SCT030 12.8 4.4 12.8 10 57% 76.58 1020.9
07 08:55 NW 11 16.09 Overcast OVC028 11.1 4.4 64% 76.61 1021.3
07 07:55 N 9 16.09 Overcast OVC029 11.1 5 66% 76.61 1021.2
07 06:55 NW 7 16.09 Overcast OVC028 10.6 4.4 66% 76.58 1020.9
07 05:55 NW 6 16.09 Overcast OVC026 10 5.6 74% 76.58 1021.0
07 04:55 Calm 16.09 Overcast OVC026 10.6 5.6 11.7 10.6 71% 76.61 1021.3
07 03:55 W 6 16.09 Overcast OVC026 10.6 5.6 71% 76.63 1021.6
07 02:55 W 9 16.09 Overcast OVC026 10.6 5.6 71% 76.66 1022.0
07 01:55 W 6 16.09 Overcast OVC026 11.1 5.6 69% 76.68 1022.2
07 00:55 NW 9 16.09 Overcast OVC026 11.1 6.1 72% 76.68 1022.3
06 23:55 W 11 16.09 Overcast BKN027 OVC033 11.1 6.7 75% 76.68 1022.3
06 22:55 NW 15 16.09 Overcast OVC031 11.7 7.2 13.3 11.7 74% 76.68 1022.4
06 21:55 W 11 16.09 Overcast OVC029 12.2 6.7 69% 76.71 1022.5
06 20:55 W 7 14.48 Overcast OVC026 11.7 9.4 86% 76.68 1022.3
06 19:55 W 11 12.87 Overcast SCT013 OVC026 12.2 9.4 83% 76.66 1022.0
06 18:55 W 11 14.48 Overcast FEW013 OVC024 12.2 10 87% 76.66 1022.1
06 17:55 W 15 16.09 Overcast FEW015 OVC026 12.8 9.4 80% 76.68 1022.2
06 15:55 SW 17 16.09 Overcast BKN017 OVC029 13.3 9.4 77% 76.68 1022.4
06 14:55 W 20 16.09 Overcast BKN017 OVC030 13.3 9.4 77% 76.71 1022.5
06 13:55 W 11 14.48 Overcast OVC014 12.8 9.4 80% 76.68 1022.3
06 12:55 Vrbl 9 14.48 Overcast OVC014 12.8 9.4 80% 76.68 1022.1
06 11:55 W 9 12.87 Overcast BKN013 OVC019 12.2 9.4 83% 76.66 1021.9
06 10:55 W 11 16.09 Overcast OVC016 12.2 9.4 12.8 11.7 83% 76.63 1021.6
06 09:55 W 9 16.09 Overcast OVC019 12.8 8.9 77% 76.61 1021.3
06 08:55 SW 11 16.09 Overcast OVC019 12.8 8.9 77% 76.58 1020.8
06 07:55 W 9 16.09 Overcast OVC021 12.2 8.9 80% 76.56 1020.6
06 06:55 Calm 16.09 Overcast OVC019 11.7 8.9 83% 76.5 1020.0
06 05:55 W 9 16.09 Overcast OVC018 11.7 8.9 83% 76.5 1020.0
06 04:55 W 7 16.09 Overcast OVC019 11.7 8.9 12.8 11.7 83% 76.48 1019.6
06 03:55 W 7 16.09 Overcast OVC016 12.2 8.9 80% 76.45 1019.1
06 02:55 SW 7 16.09 Overcast OVC016 12.2 9.4 83% 76.43 1018.8
06 01:55 SW 7 16.09 Overcast OVC015 12.2 9.4 83% 76.4 1018.6
06 00:55 SW 6 16.09 Overcast OVC015 12.8 9.4 80% 76.38 1018.2
05 23:55 SW 7 16.09 Overcast OVC016 12.8 9.4 80% 76.35 1017.9
05 22:55 Calm 16.09 Overcast OVC016 12.8 9.4 14.4 12.8 80% 76.33 1017.6
05 21:55 Calm 16.09 Overcast OVC018 12.8 10.6 87% 76.33 1017.4
05 20:55 SW 6 16.09 Overcast OVC020 12.8 10 83% 76.3 1017.1
05 19:55 SW 9 16.09 Overcast OVC020 13.3 10.6 84% 76.25 1016.6
05 18:55 W 9 16.09 Overcast OVC022 13.9 10 78% 76.23 1016.3
05 17:55 Calm 16.09 Overcast OVC021 13.9 10 78% 76.23 1016.3
05 16:55 W 9 16.09 Overcast FEW018 OVC024 14.4 10.6 15 13.9 78% 76.25 1016.6
05 15:55 W 13 16.09 Overcast FEW019 OVC024 14.4 10 75% 76.28 1016.9
Date Time (pdt) Wind (kph) Vis. (km) Weather Sky Cond. Air Dwpt Max. Min. Relative Humidity Wind Chill (°C) Heat Index (°C) altimeter (cm) sea level (mb) 1 hr 3 hr 6 hr
6 hour
Temperature (ºC) Pressure Precipitation (cm)